EKKA/KRP METAR and TAF weather

Enter ICAO airport designator
Station Type Date Time Source
EKKA METAR 2019/08/25 02:34 UTC NOAA

EKKA 250234Z AUTO 10005KT 0300 R09R/0750D R27L/P2000N FG NCD 14/13 Q1023


Station Type Date Time Source
EKKA Decoded METAR 2019/08/25 02:34 UTC NOAA

Station name not available
Aug 24, 2019 - 10:34 PM EDT / 2019.08.25 0234 UTC
Wind: from the E (100 degrees) at 6 MPH (5 KT):0
Visibility: less than 1 mile:0
Weather: fog
Temperature: 57 F (14 C)
Dew Point: 55 F (13 C)
Relative Humidity: 93%
Pressure (altimeter): 30.21 in. Hg (1023 hPa)
ob: EKKA 250234Z AUTO 10005KT 0300 R09R/0750D R27L/P2000N FG NCD 14/13 Q1023
cycle: 2

Station Type Date Time Source
EKKA TAF 2019/08/25 03:31 UTC NOAA

TAF EKKA 250211Z 2503/2603 12006KT 9999 FEW200
TEMPO 2503/2506 0700 BCFG

Example: see airport list